sensor_id;sensor_type;location;lat;lon;timestamp;temperature;humidity
38131;DHT22;23947;51.894;4.622;2022-11-20T00:02:10;-0.10;1.00
38131;DHT22;23947;51.894;4.622;2022-11-20T00:04:36;-0.20;1.00
38131;DHT22;23947;51.894;4.622;2022-11-20T00:07:02;-0.30;1.00
38131;DHT22;23947;51.894;4.622;2022-11-20T00:09:27;-0.30;1.00
38131;DHT22;23947;51.894;4.622;2022-11-20T00:11:53;-0.30;1.00
38131;DHT22;23947;51.894;4.622;2022-11-20T00:14:18;-0.30;1.00
38131;DHT22;23947;51.894;4.622;2022-11-20T00:16:44;-0.30;1.00
38131;DHT22;23947;51.894;4.622;2022-11-20T00:19:10;-0.40;1.00
38131;DHT22;23947;51.894;4.622;2022-11-20T00:21:35;-0.40;1.00
38131;DHT22;23947;51.894;4.622;2022-11-20T00:24:01;-0.50;1.00
38131;DHT22;23947;51.894;4.622;2022-11-20T00:26:27;-0.50;1.00
38131;DHT22;23947;51.894;4.622;2022-11-20T00:28:58;-0.50;1.00
38131;DHT22;23947;51.894;4.622;2022-11-20T00:31:25;-0.50;1.00
38131;DHT22;23947;51.894;4.622;2022-11-20T00:33:50;-0.50;1.00
38131;DHT22;23947;51.894;4.622;2022-11-20T00:36:18;-0.60;1.00
38131;DHT22;23947;51.894;4.622;2022-11-20T00:38:45;-0.60;1.00
38131;DHT22;23947;51.894;4.622;2022-11-20T00:41:13;-0.60;1.00
38131;DHT22;23947;51.894;4.622;2022-11-20T00:43:38;-0.60;1.00
38131;DHT22;23947;51.894;4.622;2022-11-20T00:46:09;-0.70;1.00
38131;DHT22;23947;51.894;4.622;2022-11-20T00:48:35;-0.80;1.00
38131;DHT22;23947;51.894;4.622;2022-11-20T00:51:01;-0.80;1.00
38131;DHT22;23947;51.894;4.622;2022-11-20T00:53:27;-0.70;1.00
38131;DHT22;23947;51.894;4.622;2022-11-20T00:55:54;-0.70;1.00
38131;DHT22;23947;51.894;4.622;2022-11-20T00:58:20;-0.70;1.00
38131;DHT22;23947;51.894;4.622;2022-11-20T01:00:46;-0.80;1.00
38131;DHT22;23947;51.894;4.622;2022-11-20T01:03:11;-0.80;1.00
38131;DHT22;23947;51.894;4.622;2022-11-20T01:05:37;-0.80;1.00
38131;DHT22;23947;51.894;4.622;2022-11-20T01:08:02;-0.90;1.00
38131;DHT22;23947;51.894;4.622;2022-11-20T01:10:29;-1.00;1.00
38131;DHT22;23947;51.894;4.622;2022-11-20T01:12:54;-1.00;1.00
38131;DHT22;23947;51.894;4.622;2022-11-20T01:15:38;-1.00;1.00
38131;DHT22;23947;51.894;4.622;2022-11-20T01:18:04;-1.00;1.00
38131;DHT22;23947;51.894;4.622;2022-11-20T01:20:34;-1.00;1.00
38131;DHT22;23947;51.894;4.622;2022-11-20T01:22:59;-1.00;1.00
38131;DHT22;23947;51.894;4.622;2022-11-20T01:25:25;-1.00;1.00
38131;DHT22;23947;51.894;4.622;2022-11-20T01:27:50;-1.00;1.00
38131;DHT22;23947;51.894;4.622;2022-11-20T01:30:16;-1.10;1.00
38131;DHT22;23947;51.894;4.622;2022-11-20T01:32:42;-1.00;1.00
38131;DHT22;23947;51.894;4.622;2022-11-20T01:35:07;-1.00;1.00
38131;DHT22;23947;51.894;4.622;2022-11-20T01:37:35;-1.10;1.00
38131;DHT22;23947;51.894;4.622;2022-11-20T01:40:00;-1.00;1.00
38131;DHT22;23947;51.894;4.622;2022-11-20T01:42:26;-1.10;1.00
38131;DHT22;23947;51.894;4.622;2022-11-20T01:48:14;-1.10;1.00
38131;DHT22;23947;51.894;4.622;2022-11-20T01:50:41;-1.10;1.00
38131;DHT22;23947;51.894;4.622;2022-11-20T01:53:11;-1.10;1.00
38131;DHT22;23947;51.894;4.622;2022-11-20T01:55:51;-1.10;1.00
38131;DHT22;23947;51.894;4.622;2022-11-20T01:58:22;-1.20;1.00
38131;DHT22;23947;51.894;4.622;2022-11-20T02:00:50;-1.20;1.00
38131;DHT22;23947;51.894;4.622;2022-11-20T02:03:17;-1.20;1.00
38131;DHT22;23947;51.894;4.622;2022-11-20T02:08:52;-1.20;1.00
38131;DHT22;23947;51.894;4.622;2022-11-20T02:11:18;-1.20;1.00
38131;DHT22;23947;51.894;4.622;2022-11-20T02:13:44;-1.20;1.00
38131;DHT22;23947;51.894;4.622;2022-11-20T02:18:47;-1.20;1.00
38131;DHT22;23947;51.894;4.622;2022-11-20T02:21:21;-1.20;1.00
38131;DHT22;23947;51.894;4.622;2022-11-20T02:26:44;-1.20;1.00
38131;DHT22;23947;51.894;4.622;2022-11-20T02:29:10;-1.20;1.00
38131;DHT22;23947;51.894;4.622;2022-11-20T02:31:41;-1.30;1.00
38131;DHT22;23947;51.894;4.622;2022-11-20T02:34:08;-1.30;1.00
38131;DHT22;23947;51.894;4.622;2022-11-20T02:36:34;-1.30;1.00
38131;DHT22;23947;51.894;4.622;2022-11-20T02:39:02;-1.30;1.00
38131;DHT22;23947;51.894;4.622;2022-11-20T02:41:46;-1.30;1.00
38131;DHT22;23947;51.894;4.622;2022-11-20T02:44:11;-1.30;1.00
38131;DHT22;23947;51.894;4.622;2022-11-20T02:46:37;-1.30;1.00
38131;DHT22;23947;51.894;4.622;2022-11-20T02:49:04;-1.30;1.00
38131;DHT22;23947;51.894;4.622;2022-11-20T02:51:30;-1.30;1.00
38131;DHT22;23947;51.894;4.622;2022-11-20T02:53:56;-1.30;1.00
38131;DHT22;23947;51.894;4.622;2022-11-20T02:56:22;-1.30;1.00
38131;DHT22;23947;51.894;4.622;2022-11-20T02:58:48;-1.30;1.00
38131;DHT22;23947;51.894;4.622;2022-11-20T03:01:14;-1.30;1.00
38131;DHT22;23947;51.894;4.622;2022-11-20T03:03:39;-1.30;1.00
38131;DHT22;23947;51.894;4.622;2022-11-20T03:06:05;-1.30;1.00
38131;DHT22;23947;51.894;4.622;2022-11-20T03:08:31;-1.30;1.00
38131;DHT22;23947;51.894;4.622;2022-11-20T03:11:01;-1.30;1.00
38131;DHT22;23947;51.894;4.622;2022-11-20T03:13:27;-1.30;1.00
38131;DHT22;23947;51.894;4.622;2022-11-20T03:15:52;-1.30;1.00
38131;DHT22;23947;51.894;4.622;2022-11-20T03:18:18;-1.30;1.00
38131;DHT22;23947;51.894;4.622;2022-11-20T03:20:43;-1.30;1.00
38131;DHT22;23947;51.894;4.622;2022-11-20T03:23:09;-1.30;1.00
38131;DHT22;23947;51.894;4.622;2022-11-20T03:25:35;-1.30;1.00
38131;DHT22;23947;51.894;4.622;2022-11-20T03:28:00;-1.20;1.00
38131;DHT22;23947;51.894;4.622;2022-11-20T03:30:26;-1.30;1.00
38131;DHT22;23947;51.894;4.622;2022-11-20T03:32:53;-1.30;1.00
38131;DHT22;23947;51.894;4.622;2022-11-20T03:35:19;-1.30;1.00
38131;DHT22;23947;51.894;4.622;2022-11-20T03:37:45;-1.30;1.00
38131;DHT22;23947;51.894;4.622;2022-11-20T03:40:11;-1.30;1.00
38131;DHT22;23947;51.894;4.622;2022-11-20T03:42:37;-1.30;1.00
38131;DHT22;23947;51.894;4.622;2022-11-20T03:45:12;-1.30;1.00
38131;DHT22;23947;51.894;4.622;2022-11-20T03:47:38;-1.30;1.00
38131;DHT22;23947;51.894;4.622;2022-11-20T03:50:04;-1.30;1.00
38131;DHT22;23947;51.894;4.622;2022-11-20T03:52:30;-1.40;1.00
38131;DHT22;23947;51.894;4.622;2022-11-20T03:54:55;-1.40;1.00
38131;DHT22;23947;51.894;4.622;2022-11-20T03:57:21;-1.40;1.00
38131;DHT22;23947;51.894;4.622;2022-11-20T03:59:46;-1.40;1.00
38131;DHT22;23947;51.894;4.622;2022-11-20T04:02:12;-1.40;1.00
38131;DHT22;23947;51.894;4.622;2022-11-20T04:04:37;-1.50;1.00
38131;DHT22;23947;51.894;4.622;2022-11-20T04:07:03;-1.50;1.00
38131;DHT22;23947;51.894;4.622;2022-11-20T04:09:29;-1.40;1.00
38131;DHT22;23947;51.894;4.622;2022-11-20T04:11:54;-1.50;1.00
38131;DHT22;23947;51.894;4.622;2022-11-20T04:14:20;-1.50;1.00
38131;DHT22;23947;51.894;4.622;2022-11-20T04:16:46;-1.50;1.00
38131;DHT22;23947;51.894;4.622;2022-11-20T04:19:14;-1.50;1.00
38131;DHT22;23947;51.894;4.622;2022-11-20T04:21:40;-1.50;1.00
38131;DHT22;23947;51.894;4.622;2022-11-20T04:24:06;-1.50;1.00
38131;DHT22;23947;51.894;4.622;2022-11-20T04:26:33;-1.50;1.00
38131;DHT22;23947;51.894;4.622;2022-11-20T04:28:58;-1.40;1.00
38131;DHT22;23947;51.894;4.622;2022-11-20T04:31:28;-1.40;1.00
38131;DHT22;23947;51.894;4.622;2022-11-20T04:33:54;-1.40;1.00
38131;DHT22;23947;51.894;4.622;2022-11-20T04:36:22;-1.40;1.00
38131;DHT22;23947;51.894;4.622;2022-11-20T04:39:03;-1.40;1.00
38131;DHT22;23947;51.894;4.622;2022-11-20T04:41:31;-1.40;1.00
38131;DHT22;23947;51.894;4.622;2022-11-20T04:43:59;-1.50;1.00
38131;DHT22;23947;51.894;4.622;2022-11-20T04:46:28;-1.50;1.00
38131;DHT22;23947;51.894;4.622;2022-11-20T04:48:55;-1.50;1.00
38131;DHT22;23947;51.894;4.622;2022-11-20T04:51:20;-1.50;1.00
38131;DHT22;23947;51.894;4.622;2022-11-20T04:53:46;-1.50;1.00
38131;DHT22;23947;51.894;4.622;2022-11-20T04:56:13;-1.60;1.00
38131;DHT22;23947;51.894;4.622;2022-11-20T04:58:39;-1.50;1.00
38131;DHT22;23947;51.894;4.622;2022-11-20T05:01:17;-1.50;1.00
38131;DHT22;23947;51.894;4.622;2022-11-20T05:03:44;-1.40;1.00
38131;DHT22;23947;51.894;4.622;2022-11-20T05:06:12;-1.40;1.00
38131;DHT22;23947;51.894;4.622;2022-11-20T05:08:38;-1.40;1.00
38131;DHT22;23947;51.894;4.622;2022-11-20T05:11:16;-1.40;1.00
38131;DHT22;23947;51.894;4.622;2022-11-20T05:13:42;-1.30;1.00
38131;DHT22;23947;51.894;4.622;2022-11-20T05:16:11;-1.20;1.00
38131;DHT22;23947;51.894;4.622;2022-11-20T05:18:37;-1.20;1.00
38131;DHT22;23947;51.894;4.622;2022-11-20T05:21:04;-1.10;1.00
38131;DHT22;23947;51.894;4.622;2022-11-20T05:23:31;-1.10;1.00
38131;DHT22;23947;51.894;4.622;2022-11-20T05:25:57;-1.10;1.00
38131;DHT22;23947;51.894;4.622;2022-11-20T05:28:24;-1.10;1.00
38131;DHT22;23947;51.894;4.622;2022-11-20T05:30:50;-1.10;1.00
38131;DHT22;23947;51.894;4.622;2022-11-20T05:33:16;-1.20;1.00
38131;DHT22;23947;51.894;4.622;2022-11-20T05:35:42;-1.10;1.00
38131;DHT22;23947;51.894;4.622;2022-11-20T05:38:08;-1.20;1.00
38131;DHT22;23947;51.894;4.622;2022-11-20T05:40:34;-1.30;1.00
38131;DHT22;23947;51.894;4.622;2022-11-20T05:43:00;-1.30;1.00
38131;DHT22;23947;51.894;4.622;2022-11-20T05:45:26;-1.30;1.00
38131;DHT22;23947;51.894;4.622;2022-11-20T05:47:51;-1.40;1.00
38131;DHT22;23947;51.894;4.622;2022-11-20T05:50:17;-1.40;1.00
38131;DHT22;23947;51.894;4.622;2022-11-20T05:52:43;-1.40;1.00
38131;DHT22;23947;51.894;4.622;2022-11-20T05:55:08;-1.40;1.00
38131;DHT22;23947;51.894;4.622;2022-11-20T05:57:34;-1.40;1.00
38131;DHT22;23947;51.894;4.622;2022-11-20T06:00:00;-1.40;1.00
38131;DHT22;23947;51.894;4.622;2022-11-20T06:02:26;-1.40;1.00
38131;DHT22;23947;51.894;4.622;2022-11-20T06:04:51;-1.40;1.00
38131;DHT22;23947;51.894;4.622;2022-11-20T06:07:17;-1.40;1.00
38131;DHT22;23947;51.894;4.622;2022-11-20T06:09:42;-1.40;1.00
38131;DHT22;23947;51.894;4.622;2022-11-20T06:12:08;-1.30;1.00
38131;DHT22;23947;51.894;4.622;2022-11-20T06:14:34;-1.40;1.00
38131;DHT22;23947;51.894;4.622;2022-11-20T06:16:59;-1.40;1.00
38131;DHT22;23947;51.894;4.622;2022-11-20T06:19:25;-1.30;1.00
38131;DHT22;23947;51.894;4.622;2022-11-20T06:21:51;-1.30;1.00
38131;DHT22;23947;51.894;4.622;2022-11-20T06:24:17;-1.30;1.00
38131;DHT22;23947;51.894;4.622;2022-11-20T06:26:42;-1.30;1.00
38131;DHT22;23947;51.894;4.622;2022-11-20T06:29:08;-1.30;1.00
38131;DHT22;23947;51.894;4.622;2022-11-20T06:31:34;-1.30;1.00
38131;DHT22;23947;51.894;4.622;2022-11-20T06:34:06;-1.40;1.00
38131;DHT22;23947;51.894;4.622;2022-11-20T06:36:32;-1.40;1.00
38131;DHT22;23947;51.894;4.622;2022-11-20T06:38:59;-1.40;1.00
38131;DHT22;23947;51.894;4.622;2022-11-20T06:41:25;-1.40;1.00
38131;DHT22;23947;51.894;4.622;2022-11-20T06:43:51;-1.40;1.00
38131;DHT22;23947;51.894;4.622;2022-11-20T06:46:18;-1.40;1.00
38131;DHT22;23947;51.894;4.622;2022-11-20T06:48:44;-1.30;1.00
38131;DHT22;23947;51.894;4.622;2022-11-20T06:51:10;-1.40;1.00
38131;DHT22;23947;51.894;4.622;2022-11-20T06:53:36;-1.30;1.00
38131;DHT22;23947;51.894;4.622;2022-11-20T06:56:03;-1.20;1.00
38131;DHT22;23947;51.894;4.622;2022-11-20T06:58:30;-1.10;1.00
38131;DHT22;23947;51.894;4.622;2022-11-20T07:01:01;-1.10;1.00
38131;DHT22;23947;51.894;4.622;2022-11-20T07:03:27;-0.90;1.00
38131;DHT22;23947;51.894;4.622;2022-11-20T07:05:57;-0.80;1.00
38131;DHT22;23947;51.894;4.622;2022-11-20T07:08:23;-0.70;1.00
38131;DHT22;23947;51.894;4.622;2022-11-20T07:10:49;-0.70;1.00
38131;DHT22;23947;51.894;4.622;2022-11-20T07:13:14;-0.70;1.00
38131;DHT22;23947;51.894;4.622;2022-11-20T07:15:40;-0.60;1.00
38131;DHT22;23947;51.894;4.622;2022-11-20T07:18:05;-0.60;1.00
38131;DHT22;23947;51.894;4.622;2022-11-20T07:20:31;-0.50;1.00
38131;DHT22;23947;51.894;4.622;2022-11-20T07:22:57;-0.50;1.00
38131;DHT22;23947;51.894;4.622;2022-11-20T07:25:24;-0.40;1.00
38131;DHT22;23947;51.894;4.622;2022-11-20T07:28:10;-0.40;1.00
38131;DHT22;23947;51.894;4.622;2022-11-20T07:30:59;-0.40;1.00
38131;DHT22;23947;51.894;4.622;2022-11-20T07:33:42;-0.40;1.00
38131;DHT22;23947;51.894;4.622;2022-11-20T07:36:18;-0.30;1.00
38131;DHT22;23947;51.894;4.622;2022-11-20T07:38:44;-0.30;1.00
38131;DHT22;23947;51.894;4.622;2022-11-20T07:41:16;-0.20;1.00
38131;DHT22;23947;51.894;4.622;2022-11-20T07:43:57;-0.30;1.00
38131;DHT22;23947;51.894;4.622;2022-11-20T07:46:54;-0.20;1.00
38131;DHT22;23947;51.894;4.622;2022-11-20T07:49:23;-0.20;1.00
38131;DHT22;23947;51.894;4.622;2022-11-20T07:51:52;-0.10;1.00
38131;DHT22;23947;51.894;4.622;2022-11-20T07:54:20;-0.10;1.00
38131;DHT22;23947;51.894;4.622;2022-11-20T07:56:48;0.10;1.00
38131;DHT22;23947;51.894;4.622;2022-11-20T07:59:14;0.10;1.00
38131;DHT22;23947;51.894;4.622;2022-11-20T08:01:42;0.20;1.00
38131;DHT22;23947;51.894;4.622;2022-11-20T08:04:28;0.20;1.00
38131;DHT22;23947;51.894;4.622;2022-11-20T08:07:03;0.20;1.00
38131;DHT22;23947;51.894;4.622;2022-11-20T08:09:31;0.30;1.00
38131;DHT22;23947;51.894;4.622;2022-11-20T08:12:00;0.60;1.00
38131;DHT22;23947;51.894;4.622;2022-11-20T08:14:45;0.60;1.00
38131;DHT22;23947;51.894;4.622;2022-11-20T08:17:11;0.80;1.00
38131;DHT22;23947;51.894;4.622;2022-11-20T08:19:37;0.80;1.00
38131;DHT22;23947;51.894;4.622;2022-11-20T08:22:23;0.80;1.00
38131;DHT22;23947;51.894;4.622;2022-11-20T08:24:50;0.80;1.00
38131;DHT22;23947;51.894;4.622;2022-11-20T08:27:25;0.90;1.00
38131;DHT22;23947;51.894;4.622;2022-11-20T08:30:12;0.90;1.00
38131;DHT22;23947;51.894;4.622;2022-11-20T08:33:01;0.90;1.00
38131;DHT22;23947;51.894;4.622;2022-11-20T08:35:34;0.90;1.00
38131;DHT22;23947;51.894;4.622;2022-11-20T08:38:02;1.00;1.00
38131;DHT22;23947;51.894;4.622;2022-11-20T08:40:31;1.00;1.00
38131;DHT22;23947;51.894;4.622;2022-11-20T08:42:57;1.00;1.00
38131;DHT22;23947;51.894;4.622;2022-11-20T08:48:50;1.10;1.00
38131;DHT22;23947;51.894;4.622;2022-11-20T08:51:16;1.20;1.00
38131;DHT22;23947;51.894;4.622;2022-11-20T08:53:42;1.20;1.00
38131;DHT22;23947;51.894;4.622;2022-11-20T08:56:18;1.30;1.00
38131;DHT22;23947;51.894;4.622;2022-11-20T08:58:50;1.30;1.00
38131;DHT22;23947;51.894;4.622;2022-11-20T09:01:20;1.40;1.00
38131;DHT22;23947;51.894;4.622;2022-11-20T09:03:50;1.40;1.00
38131;DHT22;23947;51.894;4.622;2022-11-20T09:06:16;1.50;1.00
38131;DHT22;23947;51.894;4.622;2022-11-20T09:08:42;1.50;1.00
38131;DHT22;23947;51.894;4.622;2022-11-20T09:11:09;1.60;1.00
38131;DHT22;23947;51.894;4.622;2022-11-20T09:13:35;1.60;1.00
38131;DHT22;23947;51.894;4.622;2022-11-20T09:16:04;1.70;1.00
38131;DHT22;23947;51.894;4.622;2022-11-20T09:18:42;1.70;1.00
38131;DHT22;23947;51.894;4.622;2022-11-20T09:24:39;1.80;1.00
38131;DHT22;23947;51.894;4.622;2022-11-20T09:27:05;1.90;1.00
38131;DHT22;23947;51.894;4.622;2022-11-20T09:29:31;1.90;1.00
38131;DHT22;23947;51.894;4.622;2022-11-20T09:32:02;1.90;1.00
38131;DHT22;23947;51.894;4.622;2022-11-20T09:34:37;1.90;1.00
38131;DHT22;23947;51.894;4.622;2022-11-20T09:37:08;2.00;1.00
38131;DHT22;23947;51.894;4.622;2022-11-20T09:40:04;2.00;1.00
38131;DHT22;23947;51.894;4.622;2022-11-20T09:51:57;2.30;1.00
38131;DHT22;23947;51.894;4.622;2022-11-20T09:54:40;2.30;1.00
38131;DHT22;23947;51.894;4.622;2022-11-20T09:57:12;2.30;1.00
38131;DHT22;23947;51.894;4.622;2022-11-20T10:00:08;2.30;1.00
38131;DHT22;23947;51.894;4.622;2022-11-20T10:17:08;2.50;1.00
38131;DHT22;23947;51.894;4.622;2022-11-20T10:23:12;2.50;1.00
38131;DHT22;23947;51.894;4.622;2022-11-20T10:25:47;2.60;1.00
38131;DHT22;23947;51.894;4.622;2022-11-20T10:31:06;2.70;1.00
38131;DHT22;23947;51.894;4.622;2022-11-20T10:33:39;2.70;1.00
38131;DHT22;23947;51.894;4.622;2022-11-20T10:36:34;2.70;1.00
38131;DHT22;23947;51.894;4.622;2022-11-20T10:39:10;2.70;1.00
38131;DHT22;23947;51.894;4.622;2022-11-20T10:41:41;2.70;1.00
38131;DHT22;23947;51.894;4.622;2022-11-20T10:44:15;2.70;1.00
38131;DHT22;23947;51.894;4.622;2022-11-20T10:47:00;2.80;1.00
38131;DHT22;23947;51.894;4.622;2022-11-20T10:49:26;2.80;1.00
38131;DHT22;23947;51.894;4.622;2022-11-20T10:52:04;2.90;1.00
38131;DHT22;23947;51.894;4.622;2022-11-20T11:00:06;3.00;1.00
38131;DHT22;23947;51.894;4.622;2022-11-20T11:02:35;3.00;1.00
38131;DHT22;23947;51.894;4.622;2022-11-20T11:07:53;3.10;1.00
38131;DHT22;23947;51.894;4.622;2022-11-20T11:10:24;3.10;1.00
38131;DHT22;23947;51.894;4.622;2022-11-20T11:12:51;3.20;1.00
38131;DHT22;23947;51.894;4.622;2022-11-20T11:15:39;3.20;1.00
38131;DHT22;23947;51.894;4.622;2022-11-20T11:18:08;3.30;1.00
38131;DHT22;23947;51.894;4.622;2022-11-20T11:20:34;3.40;1.00
38131;DHT22;23947;51.894;4.622;2022-11-20T11:23:00;3.40;1.00
38131;DHT22;23947;51.894;4.622;2022-11-20T11:25:31;3.50;1.00
38131;DHT22;23947;51.894;4.622;2022-11-20T11:28:20;3.60;1.00
38131;DHT22;23947;51.894;4.622;2022-11-20T11:30:46;3.60;1.00
38131;DHT22;23947;51.894;4.622;2022-11-20T11:33:28;3.60;1.00
38131;DHT22;23947;51.894;4.622;2022-11-20T11:35:56;3.70;1.00
38131;DHT22;23947;51.894;4.622;2022-11-20T11:40:57;3.70;1.00
38131;DHT22;23947;51.894;4.622;2022-11-20T11:43:26;3.80;1.00
38131;DHT22;23947;51.894;4.622;2022-11-20T11:49:15;3.80;1.00
38131;DHT22;23947;51.894;4.622;2022-11-20T11:52:23;3.80;1.00
38131;DHT22;23947;51.894;4.622;2022-11-20T11:54:56;3.90;1.00
38131;DHT22;23947;51.894;4.622;2022-11-20T12:10:44;4.10;1.00
38131;DHT22;23947;51.894;4.622;2022-11-20T12:13:15;4.20;1.00
38131;DHT22;23947;51.894;4.622;2022-11-20T12:15:45;4.20;1.00
38131;DHT22;23947;51.894;4.622;2022-11-20T12:18:17;4.20;1.00
38131;DHT22;23947;51.894;4.622;2022-11-20T12:21:05;4.20;1.00
38131;DHT22;23947;51.894;4.622;2022-11-20T12:44:11;4.30;1.00
38131;DHT22;23947;51.894;4.622;2022-11-20T12:50:32;4.30;1.00
38131;DHT22;23947;51.894;4.622;2022-11-20T12:55:13;4.30;1.00
38131;DHT22;23947;51.894;4.622;2022-11-20T12:57:53;4.30;1.00
38131;DHT22;23947;51.894;4.622;2022-11-20T13:00:23;4.20;1.00
38131;DHT22;23947;51.894;4.622;2022-11-20T13:05:55;4.30;1.00
38131;DHT22;23947;51.894;4.622;2022-11-20T13:08:35;4.20;1.00
38131;DHT22;23947;51.894;4.622;2022-11-20T13:13:45;4.20;1.00
38131;DHT22;23947;51.894;4.622;2022-11-20T13:18:49;4.20;1.00
38131;DHT22;23947;51.894;4.622;2022-11-20T13:21:22;4.20;1.00
38131;DHT22;23947;51.894;4.622;2022-11-20T13:24:07;4.20;1.00
38131;DHT22;23947;51.894;4.622;2022-11-20T13:26:33;4.20;1.00
38131;DHT22;23947;51.894;4.622;2022-11-20T13:29:09;4.30;1.00
38131;DHT22;23947;51.894;4.622;2022-11-20T13:31:41;4.30;1.00
38131;DHT22;23947;51.894;4.622;2022-11-20T13:34:12;4.30;1.00
38131;DHT22;23947;51.894;4.622;2022-11-20T13:36:49;4.30;1.00
38131;DHT22;23947;51.894;4.622;2022-11-20T13:39:25;4.30;1.00
38131;DHT22;23947;51.894;4.622;2022-11-20T13:41:56;4.30;1.00
38131;DHT22;23947;51.894;4.622;2022-11-20T13:44:37;4.40;1.00
38131;DHT22;23947;51.894;4.622;2022-11-20T13:47:04;4.30;1.00
38131;DHT22;23947;51.894;4.622;2022-11-20T13:49:40;4.40;1.00
38131;DHT22;23947;51.894;4.622;2022-11-20T14:02:38;4.40;1.00
38131;DHT22;23947;51.894;4.622;2022-11-20T14:05:05;4.50;1.00
38131;DHT22;23947;51.894;4.622;2022-11-20T14:07:40;4.50;1.00
38131;DHT22;23947;51.894;4.622;2022-11-20T14:10:26;4.50;1.00
38131;DHT22;23947;51.894;4.622;2022-11-20T14:12:51;4.50;1.00
38131;DHT22;23947;51.894;4.622;2022-11-20T14:17:53;4.40;1.00
38131;DHT22;23947;51.894;4.622;2022-11-20T14:20:19;4.40;1.00
38131;DHT22;23947;51.894;4.622;2022-11-20T14:22:51;4.40;1.00
38131;DHT22;23947;51.894;4.622;2022-11-20T14:27:52;4.50;1.00
38131;DHT22;23947;51.894;4.622;2022-11-20T14:30:24;4.50;1.00
38131;DHT22;23947;51.894;4.622;2022-11-20T14:32:51;4.50;1.00
38131;DHT22;23947;51.894;4.622;2022-11-20T14:37:47;4.40;1.00
38131;DHT22;23947;51.894;4.622;2022-11-20T14:40:25;4.40;1.00
38131;DHT22;23947;51.894;4.622;2022-11-20T14:42:51;4.40;1.00
38131;DHT22;23947;51.894;4.622;2022-11-20T14:45:17;4.40;1.00
38131;DHT22;23947;51.894;4.622;2022-11-20T14:47:44;4.50;1.00
38131;DHT22;23947;51.894;4.622;2022-11-20T14:50:28;4.50;1.00
38131;DHT22;23947;51.894;4.622;2022-11-20T14:53:01;4.40;1.00
38131;DHT22;23947;51.894;4.622;2022-11-20T14:55:33;4.40;1.00
38131;DHT22;23947;51.894;4.622;2022-11-20T14:58:23;4.40;1.00
38131;DHT22;23947;51.894;4.622;2022-11-20T15:00:56;4.40;1.00
38131;DHT22;23947;51.894;4.622;2022-11-20T15:03:23;4.50;1.00
38131;DHT22;23947;51.894;4.622;2022-11-20T15:05:49;4.50;1.00
38131;DHT22;23947;51.894;4.622;2022-11-20T15:08:16;4.50;1.00
38131;DHT22;23947;51.894;4.622;2022-11-20T15:10:49;4.40;1.00
38131;DHT22;23947;51.894;4.622;2022-11-20T15:13:38;4.40;1.00
38131;DHT22;23947;51.894;4.622;2022-11-20T15:16:20;4.40;1.00
38131;DHT22;23947;51.894;4.622;2022-11-20T15:18:46;4.40;1.00
38131;DHT22;23947;51.894;4.622;2022-11-20T15:21:14;4.40;1.00
38131;DHT22;23947;51.894;4.622;2022-11-20T15:23:41;4.40;1.00
38131;DHT22;23947;51.894;4.622;2022-11-20T15:26:08;4.50;1.00
38131;DHT22;23947;51.894;4.622;2022-11-20T15:28:45;4.50;1.00
38131;DHT22;23947;51.894;4.622;2022-11-20T15:31:14;4.50;1.00
38131;DHT22;23947;51.894;4.622;2022-11-20T15:33:41;4.60;1.00
38131;DHT22;23947;51.894;4.622;2022-11-20T15:36:09;4.60;1.00
38131;DHT22;23947;51.894;4.622;2022-11-20T15:38:35;4.60;1.00
38131;DHT22;23947;51.894;4.622;2022-11-20T15:41:01;4.60;1.00
38131;DHT22;23947;51.894;4.622;2022-11-20T15:43:26;4.70;1.00
38131;DHT22;23947;51.894;4.622;2022-11-20T15:46:00;4.70;1.00
38131;DHT22;23947;51.894;4.622;2022-11-20T15:48:44;4.70;1.00
38131;DHT22;23947;51.894;4.622;2022-11-20T15:53:39;4.70;1.00
38131;DHT22;23947;51.894;4.622;2022-11-20T15:56:06;4.70;1.00
38131;DHT22;23947;51.894;4.622;2022-11-20T15:58:31;4.80;1.00
38131;DHT22;23947;51.894;4.622;2022-11-20T16:00:57;4.80;1.00
38131;DHT22;23947;51.894;4.622;2022-11-20T16:03:23;4.80;1.00
38131;DHT22;23947;51.894;4.622;2022-11-20T16:05:49;4.80;1.00
38131;DHT22;23947;51.894;4.622;2022-11-20T16:08:14;4.80;1.00
38131;DHT22;23947;51.894;4.622;2022-11-20T16:10:40;4.90;1.00
38131;DHT22;23947;51.894;4.622;2022-11-20T16:13:14;4.90;1.00
38131;DHT22;23947;51.894;4.622;2022-11-20T16:16:01;4.90;1.00
38131;DHT22;23947;51.894;4.622;2022-11-20T16:18:27;4.90;1.00
38131;DHT22;23947;51.894;4.622;2022-11-20T16:20:54;5.00;1.00
38131;DHT22;23947;51.894;4.622;2022-11-20T16:23:21;5.00;1.00
38131;DHT22;23947;51.894;4.622;2022-11-20T16:25:50;5.10;1.00
38131;DHT22;23947;51.894;4.622;2022-11-20T16:28:16;5.10;1.00
38131;DHT22;23947;51.894;4.622;2022-11-20T16:30:41;5.10;1.00
38131;DHT22;23947;51.894;4.622;2022-11-20T16:33:25;5.10;1.00
38131;DHT22;23947;51.894;4.622;2022-11-20T16:35:50;5.10;1.00
38131;DHT22;23947;51.894;4.622;2022-11-20T16:38:16;5.20;1.00
38131;DHT22;23947;51.894;4.622;2022-11-20T16:40:41;5.10;1.00
38131;DHT22;23947;51.894;4.622;2022-11-20T16:43:10;5.20;1.00
38131;DHT22;23947;51.894;4.622;2022-11-20T16:45:40;5.10;1.00
38131;DHT22;23947;51.894;4.622;2022-11-20T16:48:11;5.10;1.00
38131;DHT22;23947;51.894;4.622;2022-11-20T16:50:41;5.10;1.00
38131;DHT22;23947;51.894;4.622;2022-11-20T16:53:09;5.10;1.00
38131;DHT22;23947;51.894;4.622;2022-11-20T16:55:34;4.90;1.00
38131;DHT22;23947;51.894;4.622;2022-11-20T16:58:00;4.90;1.00
38131;DHT22;23947;51.894;4.622;2022-11-20T17:00:25;4.90;1.00
38131;DHT22;23947;51.894;4.622;2022-11-20T17:02:51;4.90;1.00
38131;DHT22;23947;51.894;4.622;2022-11-20T17:05:16;4.80;1.00
38131;DHT22;23947;51.894;4.622;2022-11-20T17:07:42;4.80;1.00
38131;DHT22;23947;51.894;4.622;2022-11-20T17:10:07;4.80;1.00
38131;DHT22;23947;51.894;4.622;2022-11-20T17:12:33;4.80;1.00
38131;DHT22;23947;51.894;4.622;2022-11-20T17:14:58;4.70;1.00
38131;DHT22;23947;51.894;4.622;2022-11-20T17:17:24;4.70;1.00
38131;DHT22;23947;51.894;4.622;2022-11-20T17:19:49;4.70;1.00
38131;DHT22;23947;51.894;4.622;2022-11-20T17:22:15;4.70;1.00
38131;DHT22;23947;51.894;4.622;2022-11-20T17:24:41;4.60;1.00
38131;DHT22;23947;51.894;4.622;2022-11-20T17:27:06;4.50;1.00
38131;DHT22;23947;51.894;4.622;2022-11-20T17:29:32;4.50;1.00
38131;DHT22;23947;51.894;4.622;2022-11-20T17:31:57;4.50;1.00
38131;DHT22;23947;51.894;4.622;2022-11-20T17:34:23;4.50;1.00
38131;DHT22;23947;51.894;4.622;2022-11-20T17:36:48;4.40;1.00
38131;DHT22;23947;51.894;4.622;2022-11-20T17:39:14;4.40;1.00
38131;DHT22;23947;51.894;4.622;2022-11-20T17:41:40;4.30;1.00
38131;DHT22;23947;51.894;4.622;2022-11-20T17:44:08;4.30;1.00
38131;DHT22;23947;51.894;4.622;2022-11-20T17:46:33;4.40;1.00
38131;DHT22;23947;51.894;4.622;2022-11-20T17:48:59;4.40;1.00
38131;DHT22;23947;51.894;4.622;2022-11-20T17:51:26;4.40;1.00
38131;DHT22;23947;51.894;4.622;2022-11-20T17:53:53;4.40;1.00
38131;DHT22;23947;51.894;4.622;2022-11-20T17:56:19;4.40;1.00
38131;DHT22;23947;51.894;4.622;2022-11-20T17:59:06;4.40;1.00
38131;DHT22;23947;51.894;4.622;2022-11-20T18:01:32;4.40;1.00
38131;DHT22;23947;51.894;4.622;2022-11-20T18:03:58;4.40;1.00
38131;DHT22;23947;51.894;4.622;2022-11-20T18:06:24;4.40;1.00
38131;DHT22;23947;51.894;4.622;2022-11-20T18:08:50;4.40;1.00
38131;DHT22;23947;51.894;4.622;2022-11-20T18:11:25;4.40;1.00
38131;DHT22;23947;51.894;4.622;2022-11-20T18:13:52;4.40;1.00
38131;DHT22;23947;51.894;4.622;2022-11-20T18:16:40;4.40;1.00
38131;DHT22;23947;51.894;4.622;2022-11-20T18:19:07;4.40;1.00
38131;DHT22;23947;51.894;4.622;2022-11-20T18:21:33;4.40;1.00